createdAt,value
2023-05-11T00:02:01.313Z,0.20
2023-05-11T00:04:28.565Z,0.20
2023-05-11T00:06:56.752Z,0.30
2023-05-11T00:09:23.626Z,0.20
2023-05-11T00:11:52.697Z,0.30
2023-05-11T00:14:19.775Z,0.20
2023-05-11T00:16:53.903Z,0.30
2023-05-11T00:19:20.852Z,0.30
2023-05-11T00:21:48.473Z,0.30
2023-05-11T00:24:16.303Z,0.20
2023-05-11T00:26:43.299Z,0.20
2023-05-11T00:29:10.133Z,0.20
2023-05-11T00:31:37.336Z,0.23
2023-05-11T00:34:04.332Z,0.30
2023-05-11T00:36:31.198Z,0.20
2023-05-11T00:38:58.082Z,0.20
2023-05-11T00:41:24.889Z,0.20
2023-05-11T00:43:51.698Z,0.30
2023-05-11T00:46:19.031Z,0.30
2023-05-11T00:48:46.297Z,0.20
2023-05-11T00:51:13.437Z,0.20
2023-05-11T00:53:40.369Z,0.20
2023-05-11T00:56:07.457Z,0.20
2023-05-11T00:58:36.036Z,0.27
2023-05-11T01:01:03.133Z,0.27
2023-05-11T01:03:29.952Z,0.20
2023-05-11T01:06:12.166Z,0.20
2023-05-11T01:08:38.975Z,0.20
2023-05-11T01:11:14.130Z,0.20
2023-05-11T01:13:44.581Z,0.20
2023-05-11T01:16:24.557Z,0.20
2023-05-11T01:18:56.335Z,0.20
2023-05-11T01:21:24.253Z,0.20
2023-05-11T01:24:07.104Z,0.30
2023-05-11T01:26:37.649Z,0.20
2023-05-11T01:29:16.446Z,0.20
2023-05-11T01:31:44.582Z,0.20
2023-05-11T01:34:18.856Z,0.20
2023-05-11T01:36:54.689Z,0.30
2023-05-11T01:39:25.127Z,0.30
2023-05-11T01:41:54.141Z,0.20
2023-05-11T01:44:21.873Z,0.20
2023-05-11T01:46:56.413Z,0.20
2023-05-11T01:49:23.469Z,0.20
2023-05-11T01:51:51.452Z,0.30
2023-05-11T01:54:18.353Z,0.20
2023-05-11T01:56:45.664Z,0.20
2023-05-11T01:59:14.377Z,0.30
2023-05-11T02:01:41.529Z,0.20
2023-05-11T02:04:08.828Z,0.20
2023-05-11T02:06:35.683Z,0.20
2023-05-11T02:09:03.504Z,0.30
2023-05-11T02:11:30.502Z,0.20
2023-05-11T02:13:58.494Z,0.30
2023-05-11T02:16:26.243Z,0.20
2023-05-11T02:18:53.079Z,0.20
2023-05-11T02:21:20.126Z,0.30
2023-05-11T02:23:47.056Z,0.27
2023-05-11T02:26:13.939Z,0.43
2023-05-11T02:28:40.919Z,0.40
2023-05-11T02:31:11.022Z,0.30
2023-05-11T02:33:40.987Z,0.30
2023-05-11T02:36:08.300Z,0.23
2023-05-11T02:38:35.748Z,0.30
2023-05-11T02:41:06.411Z,0.37
2023-05-11T02:43:37.293Z,0.30
2023-05-11T02:46:08.069Z,0.20
2023-05-11T02:48:40.115Z,0.30
2023-05-11T02:51:10.511Z,0.30
2023-05-11T02:53:37.428Z,0.30
2023-05-11T02:56:04.369Z,0.30
2023-05-11T02:58:31.398Z,0.30
2023-05-11T03:01:00.074Z,0.30
2023-05-11T03:03:27.599Z,0.20
2023-05-11T03:05:54.465Z,0.27
2023-05-11T03:08:21.246Z,0.20
2023-05-11T03:10:48.379Z,0.20
2023-05-11T03:13:16.738Z,0.30
2023-05-11T03:15:43.886Z,0.30
2023-05-11T03:18:11.989Z,0.30
2023-05-11T03:20:40.338Z,0.20
2023-05-11T03:23:07.469Z,0.30
2023-05-11T03:25:35.576Z,0.20
2023-05-11T03:28:03.826Z,0.30
2023-05-11T03:30:33.075Z,0.20
2023-05-11T03:33:00.182Z,0.20
2023-05-11T03:35:31.574Z,0.23
2023-05-11T03:37:58.724Z,0.40
2023-05-11T03:40:27.981Z,1.10
2023-05-11T03:42:55.005Z,1.47
2023-05-11T03:45:21.895Z,0.97
2023-05-11T03:47:49.365Z,0.83
2023-05-11T03:50:19.507Z,0.70
2023-05-11T03:52:46.693Z,0.50
2023-05-11T03:55:13.880Z,0.40
2023-05-11T03:57:40.847Z,0.30
2023-05-11T04:00:08.342Z,0.40
2023-05-11T04:02:35.810Z,0.30
2023-05-11T04:05:10.907Z,0.50
2023-05-11T04:07:38.343Z,0.43
2023-05-11T04:10:06.138Z,0.77
2023-05-11T04:12:33.041Z,0.40
2023-05-11T04:14:59.856Z,0.40
2023-05-11T04:17:26.827Z,0.37
2023-05-11T04:19:54.552Z,0.30
2023-05-11T04:22:23.417Z,0.40
2023-05-11T04:24:50.262Z,0.30
2023-05-11T04:27:17.402Z,0.30
2023-05-11T04:29:45.079Z,0.30
2023-05-11T04:32:12.081Z,0.30
2023-05-11T04:34:38.974Z,0.20
2023-05-11T04:37:07.505Z,0.20
2023-05-11T04:39:35.851Z,0.40
2023-05-11T04:42:04.176Z,0.43
2023-05-11T04:44:31.164Z,0.30
2023-05-11T04:46:58.192Z,0.50
2023-05-11T04:49:25.110Z,0.30
2023-05-11T04:51:51.964Z,0.30
2023-05-11T04:54:19.539Z,0.50
2023-05-11T04:56:46.420Z,0.30
2023-05-11T04:59:13.298Z,0.40
2023-05-11T05:01:40.485Z,0.37
2023-05-11T05:04:08.221Z,0.40
2023-05-11T05:06:38.335Z,0.30
2023-05-11T05:09:05.305Z,0.33
2023-05-11T05:11:33.065Z,0.20
2023-05-11T05:14:00.000Z,0.30
2023-05-11T05:16:26.857Z,0.40
2023-05-11T05:18:53.804Z,0.30
2023-05-11T05:21:21.629Z,0.37
2023-05-11T05:24:07.204Z,0.30
2023-05-11T05:26:45.614Z,0.50
2023-05-11T05:29:12.418Z,0.30
2023-05-11T05:31:40.402Z,0.30
2023-05-11T05:34:07.264Z,0.30
2023-05-11T05:36:34.062Z,0.30
2023-05-11T05:39:01.019Z,0.30
2023-05-11T05:41:29.119Z,0.20
2023-05-11T05:43:56.313Z,0.30
2023-05-11T05:46:23.473Z,0.20
2023-05-11T05:48:50.450Z,0.30
2023-05-11T05:51:17.485Z,0.47
2023-05-11T05:53:44.469Z,0.43
2023-05-11T05:56:11.387Z,0.40
2023-05-11T05:58:38.608Z,0.40
2023-05-11T06:01:06.789Z,0.70
2023-05-11T06:03:33.861Z,0.60
2023-05-11T06:06:04.306Z,0.60
2023-05-11T06:08:31.110Z,0.50
2023-05-11T06:10:58.484Z,0.43
2023-05-11T06:13:25.498Z,0.57
2023-05-11T06:15:55.593Z,0.43
2023-05-11T06:18:22.588Z,0.40
2023-05-11T06:20:51.704Z,0.40
2023-05-11T06:23:18.573Z,0.30
2023-05-11T06:25:45.598Z,0.30
2023-05-11T06:28:12.511Z,0.30
2023-05-11T06:30:39.849Z,0.40
2023-05-11T06:33:06.891Z,0.60
2023-05-11T06:35:33.884Z,0.90
2023-05-11T06:38:00.693Z,1.13
2023-05-11T06:40:27.982Z,0.80
2023-05-11T06:42:55.154Z,0.60
2023-05-11T06:45:23.287Z,0.60
2023-05-11T06:47:50.357Z,0.43
2023-05-11T06:50:20.152Z,0.60
2023-05-11T06:52:50.473Z,0.40
2023-05-11T06:55:18.346Z,0.40
2023-05-11T06:57:45.717Z,0.50
2023-05-11T07:00:20.306Z,0.30
2023-05-11T07:02:49.785Z,0.47
2023-05-11T07:05:16.705Z,0.60
2023-05-11T07:07:44.773Z,0.90
2023-05-11T07:10:14.684Z,0.63
2023-05-11T07:12:45.440Z,0.80
2023-05-11T07:15:15.541Z,0.70
2023-05-11T07:17:48.144Z,0.60
2023-05-11T07:20:15.269Z,0.60
2023-05-11T07:22:42.161Z,0.60
2023-05-11T07:25:13.222Z,0.40
2023-05-11T07:27:46.690Z,0.40
2023-05-11T07:30:13.843Z,0.40
2023-05-11T07:32:41.851Z,0.20
2023-05-11T07:35:09.008Z,0.30
2023-05-11T07:37:36.162Z,0.30
2023-05-11T07:40:03.139Z,0.57
2023-05-11T07:42:31.820Z,0.90
2023-05-11T07:45:05.668Z,0.60
2023-05-11T07:47:36.876Z,0.60
2023-05-11T07:50:05.061Z,0.40
2023-05-11T07:52:32.770Z,0.40
2023-05-11T07:55:01.042Z,0.40
2023-05-11T07:57:28.366Z,0.60
2023-05-11T07:59:55.228Z,0.60
2023-05-11T08:02:22.108Z,0.40
2023-05-11T08:04:49.104Z,0.40
2023-05-11T08:07:16.327Z,0.50
2023-05-11T08:09:43.680Z,0.40
2023-05-11T08:12:10.574Z,0.30
2023-05-11T08:14:37.746Z,0.40
2023-05-11T08:17:06.473Z,0.50
2023-05-11T08:19:33.429Z,0.43
2023-05-11T08:22:01.490Z,0.40
2023-05-11T08:24:31.372Z,0.47
2023-05-11T08:26:58.190Z,0.50
2023-05-11T08:29:27.782Z,0.40
2023-05-11T08:31:54.823Z,0.40
2023-05-11T08:34:23.394Z,0.30
2023-05-11T08:36:51.533Z,0.40
2023-05-11T08:39:32.895Z,0.40
2023-05-11T08:42:07.023Z,0.30
2023-05-11T08:44:37.995Z,0.30
2023-05-11T08:47:22.084Z,0.30
2023-05-11T08:49:52.030Z,0.40
2023-05-11T08:52:18.936Z,0.30
2023-05-11T08:54:46.731Z,0.30
2023-05-11T08:57:14.225Z,0.30
2023-05-11T08:59:46.213Z,0.47
2023-05-11T09:02:20.012Z,0.57
2023-05-11T09:04:48.812Z,0.50
2023-05-11T09:07:18.896Z,0.40
2023-05-11T09:09:46.949Z,0.30
2023-05-11T09:12:14.326Z,0.60
2023-05-11T09:14:41.794Z,0.40
2023-05-11T09:17:09.675Z,0.50
2023-05-11T09:19:37.913Z,0.30
2023-05-11T09:22:06.435Z,0.40
2023-05-11T09:24:37.579Z,0.40
2023-05-11T09:27:10.733Z,0.50
2023-05-11T09:29:38.868Z,0.40
2023-05-11T09:32:06.146Z,0.47
2023-05-11T09:34:33.991Z,0.40
2023-05-11T09:37:00.990Z,0.47
2023-05-11T09:39:42.150Z,0.40
2023-05-11T09:42:15.987Z,0.40
2023-05-11T09:44:47.651Z,0.40
2023-05-11T09:47:18.213Z,0.30
2023-05-11T09:49:46.677Z,0.30
2023-05-11T09:52:18.323Z,0.40
2023-05-11T09:54:49.805Z,0.30
2023-05-11T09:57:27.171Z,0.30
2023-05-11T09:59:54.364Z,0.27
2023-05-11T10:02:29.407Z,0.40
2023-05-11T10:05:00.694Z,0.40
2023-05-11T10:07:45.535Z,0.37
2023-05-11T10:10:12.819Z,0.30
2023-05-11T10:12:40.889Z,0.50
2023-05-11T10:15:09.798Z,0.50
2023-05-11T10:17:37.954Z,0.20
2023-05-11T10:20:06.235Z,0.40
2023-05-11T10:22:33.590Z,0.30
2023-05-11T10:25:00.604Z,0.40
2023-05-11T10:27:28.971Z,0.40
2023-05-11T10:29:55.920Z,0.30
2023-05-11T10:32:22.993Z,0.30
2023-05-11T10:34:52.569Z,0.23
2023-05-11T10:37:22.383Z,0.23
2023-05-11T10:39:52.270Z,0.30
2023-05-11T10:42:43.150Z,0.20
2023-05-11T10:45:17.183Z,0.20
2023-05-11T10:48:03.849Z,0.30
2023-05-11T10:51:07.512Z,0.30
2023-05-11T10:53:46.328Z,0.20
2023-05-11T10:56:53.014Z,0.30
2023-05-11T10:59:44.214Z,0.30
2023-05-11T11:02:11.115Z,0.20
2023-05-11T11:04:51.334Z,0.40
2023-05-11T11:07:19.775Z,0.43
2023-05-11T11:09:57.658Z,0.50
2023-05-11T11:12:27.465Z,0.50
2023-05-11T11:15:02.455Z,0.50
2023-05-11T11:17:31.800Z,0.30
2023-05-11T11:20:01.384Z,0.40
2023-05-11T11:22:41.310Z,0.37
2023-05-11T11:25:09.680Z,0.50
2023-05-11T11:27:58.101Z,0.50
2023-05-11T11:30:30.550Z,0.50
2023-05-11T11:33:07.152Z,0.40
2023-05-11T11:35:43.038Z,0.60
2023-05-11T11:38:20.769Z,0.50
2023-05-11T11:40:51.297Z,0.30
2023-05-11T11:43:24.645Z,0.40
2023-05-11T11:46:03.769Z,0.70
2023-05-11T11:48:36.074Z,0.57
2023-05-11T11:51:04.830Z,0.50
2023-05-11T11:53:46.867Z,0.57
2023-05-11T11:56:17.761Z,0.40
2023-05-11T11:58:45.169Z,0.47
2023-05-11T12:01:27.540Z,0.70
2023-05-11T12:04:20.638Z,0.53
2023-05-11T12:06:48.224Z,0.50
2023-05-11T12:09:24.428Z,0.50
2023-05-11T12:11:52.328Z,0.43
2023-05-11T12:14:19.683Z,0.43
2023-05-11T12:17:13.403Z,0.50
2023-05-11T12:19:45.637Z,0.60
2023-05-11T12:22:14.481Z,0.73
2023-05-11T12:24:47.584Z,0.43
2023-05-11T12:27:17.930Z,0.70
2023-05-11T12:29:50.177Z,0.40
2023-05-11T12:32:28.796Z,0.70
2023-05-11T12:35:04.370Z,0.50
2023-05-11T12:37:31.632Z,0.40
2023-05-11T12:39:58.759Z,0.70
2023-05-11T12:42:26.277Z,0.60
2023-05-11T12:44:55.998Z,0.73
2023-05-11T12:47:22.986Z,0.63
2023-05-11T12:49:49.954Z,0.43
2023-05-11T12:52:17.080Z,0.40
2023-05-11T12:54:50.375Z,0.77
2023-05-11T12:57:26.867Z,0.60
2023-05-11T13:00:18.123Z,0.70
2023-05-11T13:02:58.717Z,0.83
2023-05-11T13:05:27.125Z,0.60
2023-05-11T13:08:07.205Z,0.70
2023-05-11T13:10:34.169Z,0.57
2023-05-11T13:13:02.045Z,0.50
2023-05-11T13:15:29.426Z,0.57
2023-05-11T13:18:01.378Z,0.53
2023-05-11T13:20:30.192Z,0.47
2023-05-11T13:23:10.133Z,0.80
2023-05-11T13:25:54.103Z,0.50
2023-05-11T13:28:23.461Z,0.50
2023-05-11T13:30:51.604Z,0.60
2023-05-11T13:33:19.511Z,0.50
2023-05-11T13:35:46.550Z,0.33
2023-05-11T13:38:14.879Z,0.50
2023-05-11T13:40:42.143Z,0.60
2023-05-11T13:43:11.362Z,0.60
2023-05-11T13:45:43.199Z,0.63
2023-05-11T13:48:11.084Z,0.40
2023-05-11T13:50:39.160Z,0.60
2023-05-11T13:53:06.335Z,0.50
2023-05-11T13:55:35.925Z,0.43
2023-05-11T13:58:06.454Z,0.40
2023-05-11T14:00:35.211Z,0.30
2023-05-11T14:03:04.993Z,0.40
2023-05-11T14:05:32.048Z,0.30
2023-05-11T14:07:59.105Z,0.40
2023-05-11T14:10:26.040Z,0.40
2023-05-11T14:12:56.160Z,0.47
2023-05-11T14:15:23.903Z,0.40
2023-05-11T14:17:51.707Z,0.30
2023-05-11T14:20:18.610Z,0.30
2023-05-11T14:22:45.561Z,0.20
2023-05-11T14:25:12.666Z,0.30
2023-05-11T14:27:39.792Z,0.30
2023-05-11T14:30:07.830Z,0.27
2023-05-11T14:32:38.376Z,0.40
2023-05-11T14:35:05.917Z,0.40
2023-05-11T14:37:33.552Z,0.37
2023-05-11T14:40:02.491Z,0.40
2023-05-11T14:42:35.534Z,0.33
2023-05-11T14:45:05.160Z,0.27
2023-05-11T14:47:32.314Z,0.60
2023-05-11T14:49:59.244Z,0.30
2023-05-11T14:52:29.138Z,0.50
2023-05-11T14:54:56.844Z,0.50
2023-05-11T14:57:26.776Z,0.30
2023-05-11T14:59:59.658Z,0.60
2023-05-11T15:02:29.111Z,0.40
2023-05-11T15:04:56.065Z,0.30
2023-05-11T15:07:24.111Z,0.33
2023-05-11T15:09:51.396Z,0.40
2023-05-11T15:12:18.939Z,0.30
2023-05-11T15:14:46.665Z,0.30
2023-05-11T15:17:13.517Z,0.50
2023-05-11T15:19:42.042Z,0.30
2023-05-11T15:22:08.865Z,0.30
2023-05-11T15:24:37.064Z,0.40
2023-05-11T15:27:03.989Z,0.40
2023-05-11T15:29:31.017Z,0.40
2023-05-11T15:31:57.940Z,0.53
2023-05-11T15:34:26.319Z,0.50
2023-05-11T15:36:53.386Z,0.50
2023-05-11T15:39:20.834Z,0.67
2023-05-11T15:41:48.040Z,0.60
2023-05-11T15:44:14.890Z,0.80
2023-05-11T15:46:42.308Z,0.87
2023-05-11T15:49:12.134Z,0.70
2023-05-11T15:51:38.925Z,0.60
2023-05-11T15:54:06.010Z,1.10
2023-05-11T15:56:32.916Z,0.60
2023-05-11T15:58:59.818Z,0.73
2023-05-11T16:01:27.315Z,0.90
2023-05-11T16:03:54.345Z,0.50
2023-05-11T16:06:21.412Z,0.50
2023-05-11T16:08:49.282Z,0.60
2023-05-11T16:11:16.165Z,0.60
2023-05-11T16:13:43.066Z,0.57
2023-05-11T16:16:10.364Z,0.50
2023-05-11T16:18:39.217Z,0.40
2023-05-11T16:21:07.273Z,0.40
2023-05-11T16:23:34.482Z,0.60
2023-05-11T16:26:01.916Z,0.30
2023-05-11T16:28:30.399Z,0.30
2023-05-11T16:31:01.023Z,0.40
2023-05-11T16:33:28.013Z,0.40
2023-05-11T16:35:54.954Z,0.60
2023-05-11T16:38:22.579Z,0.40
2023-05-11T16:40:49.887Z,0.27
2023-05-11T16:43:16.987Z,0.40
2023-05-11T16:45:45.228Z,0.43
2023-05-11T16:48:12.082Z,0.50
2023-05-11T16:50:39.175Z,0.80
2023-05-11T16:53:05.970Z,0.40
2023-05-11T16:55:33.375Z,0.70
2023-05-11T16:58:00.232Z,0.53
2023-05-11T17:00:28.520Z,0.67
2023-05-11T17:02:55.589Z,0.67
2023-05-11T17:05:25.172Z,0.70
2023-05-11T17:07:53.262Z,0.70
2023-05-11T17:10:21.405Z,0.80
2023-05-11T17:12:52.222Z,0.80
2023-05-11T17:15:19.393Z,1.07
2023-05-11T17:17:46.317Z,0.70
2023-05-11T17:20:13.578Z,1.07
2023-05-11T17:22:42.238Z,0.90
2023-05-11T17:25:09.910Z,0.93
2023-05-11T17:27:39.785Z,0.70
2023-05-11T17:30:08.138Z,0.80
2023-05-11T17:32:35.412Z,0.60
2023-05-11T17:35:03.479Z,0.60
2023-05-11T17:37:32.437Z,0.60
2023-05-11T17:40:01.727Z,0.60
2023-05-11T17:42:28.759Z,0.73
2023-05-11T17:44:56.512Z,0.77
2023-05-11T17:47:23.418Z,0.70
2023-05-11T17:49:50.581Z,0.50
2023-05-11T17:52:17.442Z,0.90
2023-05-11T17:54:44.671Z,0.50
2023-05-11T17:57:11.509Z,0.63
2023-05-11T17:59:38.637Z,0.50
2023-05-11T18:02:07.578Z,0.50
2023-05-11T18:04:38.279Z,0.50
2023-05-11T18:07:24.487Z,0.50
2023-05-11T18:09:54.550Z,0.40
2023-05-11T18:12:22.307Z,0.50
2023-05-11T18:14:49.161Z,0.60
2023-05-11T18:17:19.318Z,0.50
2023-05-11T18:19:46.172Z,0.47
2023-05-11T18:22:16.762Z,0.50
2023-05-11T18:24:44.789Z,0.40
2023-05-11T18:27:11.675Z,0.50
2023-05-11T18:29:38.562Z,0.57
2023-05-11T18:32:11.341Z,0.50
2023-05-11T18:34:42.978Z,0.40
2023-05-11T18:37:10.144Z,0.60
2023-05-11T18:39:38.314Z,0.50
2023-05-11T18:42:06.424Z,0.30
2023-05-11T18:44:34.563Z,0.60
2023-05-11T18:47:01.628Z,0.60
2023-05-11T18:49:28.637Z,0.40
2023-05-11T18:51:56.606Z,0.60
2023-05-11T18:54:24.585Z,0.63
2023-05-11T18:56:51.615Z,0.90
2023-05-11T18:59:18.410Z,0.70
2023-05-11T19:01:48.980Z,0.67
2023-05-11T19:04:19.960Z,0.80
2023-05-11T19:06:47.580Z,0.50
2023-05-11T19:09:15.605Z,0.53
2023-05-11T19:11:43.237Z,0.50
2023-05-11T19:14:14.654Z,0.40
2023-05-11T19:16:41.994Z,0.60
2023-05-11T19:19:08.994Z,0.57
2023-05-11T19:21:39.929Z,0.60
2023-05-11T19:24:08.425Z,0.63
2023-05-11T19:26:35.733Z,0.80
2023-05-11T19:29:02.821Z,0.60
2023-05-11T19:31:31.488Z,0.63
2023-05-11T19:34:00.038Z,0.70
2023-05-11T19:36:27.428Z,0.60
2023-05-11T19:38:54.534Z,0.70
2023-05-11T19:41:22.477Z,0.60
2023-05-11T19:43:52.063Z,0.90
2023-05-11T19:46:18.938Z,0.63
2023-05-11T19:48:46.046Z,0.60
2023-05-11T19:51:17.087Z,0.80
2023-05-11T19:53:44.024Z,0.80
2023-05-11T19:56:11.531Z,0.80
2023-05-11T19:58:38.322Z,0.77
2023-05-11T20:01:05.314Z,0.70
2023-05-11T20:03:32.246Z,0.70
2023-05-11T20:05:59.104Z,1.00
2023-05-11T20:08:28.744Z,0.60
2023-05-11T20:10:56.030Z,0.70
2023-05-11T20:13:22.881Z,0.73
2023-05-11T20:15:50.036Z,0.63
2023-05-11T20:18:18.475Z,0.60
2023-05-11T20:20:45.301Z,0.53
2023-05-11T20:23:14.479Z,0.60
2023-05-11T20:25:44.098Z,0.60
2023-05-11T20:28:13.416Z,0.53
2023-05-11T20:30:40.263Z,0.60
2023-05-11T20:35:37.192Z,0.67
2023-05-11T20:38:04.357Z,0.70
2023-05-11T20:40:33.590Z,0.60
2023-05-11T20:43:00.432Z,0.70
2023-05-11T20:45:27.401Z,0.40
2023-05-11T20:47:54.631Z,0.50
2023-05-11T20:50:22.770Z,0.57
2023-05-11T20:52:49.802Z,0.50
2023-05-11T20:55:17.971Z,0.50
2023-05-11T20:57:45.386Z,0.40
2023-05-11T21:00:16.507Z,0.60
2023-05-11T21:02:44.099Z,0.50
2023-05-11T21:05:13.029Z,0.50
2023-05-11T21:07:40.160Z,0.70
2023-05-11T21:10:07.856Z,0.60
2023-05-11T21:12:35.066Z,0.50
2023-05-11T21:15:03.013Z,0.60
2023-05-11T21:17:29.837Z,0.40
2023-05-11T21:19:56.667Z,0.80
2023-05-11T21:22:24.439Z,0.80
2023-05-11T21:24:51.814Z,0.90
2023-05-11T21:27:18.820Z,0.60
2023-05-11T21:29:45.848Z,0.60
2023-05-11T21:32:12.970Z,0.70
2023-05-11T21:34:40.107Z,0.80
2023-05-11T21:37:07.056Z,0.70
2023-05-11T21:39:34.723Z,1.17
2023-05-11T21:42:02.737Z,0.87
2023-05-11T21:44:29.862Z,0.83
2023-05-11T21:46:57.011Z,1.10
2023-05-11T21:49:24.289Z,1.00
2023-05-11T21:51:51.118Z,0.83
2023-05-11T21:54:22.352Z,0.70
2023-05-11T21:56:50.248Z,0.80
2023-05-11T21:59:18.774Z,0.70
2023-05-11T22:01:47.047Z,0.80
2023-05-11T22:04:14.311Z,0.80
2023-05-11T22:06:41.201Z,0.50
2023-05-11T22:09:09.069Z,0.50
2023-05-11T22:11:38.500Z,0.30
2023-05-11T22:14:05.741Z,0.57
2023-05-11T22:16:33.701Z,0.50
2023-05-11T22:19:01.858Z,0.40
2023-05-11T22:21:28.891Z,0.47
2023-05-11T22:23:56.085Z,0.40
2023-05-11T22:26:23.387Z,0.50
2023-05-11T22:28:50.184Z,0.37
2023-05-11T22:31:17.231Z,0.50
2023-05-11T22:33:44.125Z,0.40
2023-05-11T22:36:13.918Z,0.33
2023-05-11T22:38:40.776Z,0.70
2023-05-11T22:41:07.554Z,0.40
2023-05-11T22:43:36.077Z,0.60
2023-05-11T22:46:05.237Z,0.50
2023-05-11T22:48:32.096Z,0.40
2023-05-11T22:50:59.398Z,0.40
2023-05-11T22:53:26.857Z,0.50
2023-05-11T22:55:53.907Z,0.40
2023-05-11T22:58:20.726Z,0.40
2023-05-11T23:00:48.003Z,0.50
2023-05-11T23:03:15.114Z,0.50
2023-05-11T23:05:42.066Z,0.57
2023-05-11T23:08:09.026Z,0.50
2023-05-11T23:10:35.858Z,0.60
2023-05-11T23:13:04.967Z,0.60
2023-05-11T23:15:33.156Z,0.50
2023-05-11T23:18:02.577Z,0.90
2023-05-11T23:20:29.635Z,0.60
2023-05-11T23:22:56.467Z,0.53
2023-05-11T23:25:26.243Z,0.63
2023-05-11T23:27:55.067Z,0.50
2023-05-11T23:30:23.176Z,0.53
2023-05-11T23:32:50.284Z,0.40
2023-05-11T23:35:18.184Z,0.53
2023-05-11T23:37:46.478Z,0.47
2023-05-11T23:40:13.762Z,0.43
2023-05-11T23:42:40.621Z,0.50
2023-05-11T23:45:08.775Z,0.47
2023-05-11T23:47:37.371Z,0.40
2023-05-11T23:50:05.723Z,0.60
2023-05-11T23:52:33.590Z,0.30
2023-05-11T23:55:00.467Z,0.30
2023-05-11T23:57:27.308Z,0.60
2023-05-11T23:59:54.317Z,0.40
